Time;durP1;ratioP1;P1;durP2;ratioP2;P2;SDS_P1;SDS_P2;PMS_P1;PMS_P2;Temp;Humidity;BMP_temperature;BMP_pressure;BME280_temperature;BME280_humidity;BME280_pressure;Samples;Min_cycle;Max_cycle;Signal;HPM_P1;HPM_P2
2023/02/02 00:00:16;;;;;;;15.00;2.30;;;4.70;99.90;;;;;;5037564;28;20472;-61
2023/02/02 00:02:41;;;;;;;14.68;2.20;;;4.70;99.90;;;;;;5042439;28;20074;-61
2023/02/02 00:05:08;;;;;;;12.65;2.53;;;4.70;99.90;;;;;;5027143;28;20032;-59
2023/02/02 00:07:33;;;;;;;13.23;2.47;;;4.70;99.90;;;;;;5042019;28;20057;-60
2023/02/02 00:09:59;;;;;;;12.63;2.30;;;4.70;99.90;;;;;;5035430;28;20134;-61
2023/02/02 00:12:24;;;;;;;8.45;2.50;;;4.80;99.90;;;;;;5038957;28;20041;-61
2023/02/02 00:14:50;;;;;;;13.88;3.30;;;4.70;99.90;;;;;;5040200;28;20033;-61
2023/02/02 00:17:15;;;;;;;16.25;2.55;;;4.80;99.90;;;;;;5037019;28;20033;-61
2023/02/02 00:19:41;;;;;;;12.50;2.45;;;4.80;99.90;;;;;;5039522;28;20183;-61
2023/02/02 00:22:06;;;;;;;16.08;2.75;;;4.80;99.90;;;;;;5041237;28;20443;-61
2023/02/02 00:24:32;;;;;;;14.10;3.20;;;4.80;99.90;;;;;;5038693;28;20412;-60
2023/02/02 00:26:59;;;;;;;20.05;3.30;;;4.80;99.90;;;;;;5039566;28;20028;-60
2023/02/02 00:29:27;;;;;;;18.27;2.65;;;4.80;99.90;;;;;;5042611;28;20032;-61
2023/02/02 00:31:53;;;;;;;11.40;2.55;;;4.80;99.90;;;;;;5034433;28;20334;-61
2023/02/02 00:34:19;;;;;;;18.52;2.92;;;4.90;99.90;;;;;;5035902;28;20053;-61
2023/02/02 00:36:46;;;;;;;19.48;2.85;;;4.90;99.90;;;;;;5043691;28;20402;-60
2023/02/02 00:39:17;;;;;;;15.25;2.65;;;4.90;99.90;;;;;;5043081;28;20113;-61
2023/02/02 00:41:43;;;;;;;18.20;2.75;;;4.90;99.90;;;;;;5042827;28;20032;-61
2023/02/02 00:46:53;;;;;;;17.15;3.10;;;4.90;99.90;;;;;;5036574;28;20075;-60
2023/02/02 00:49:19;;;;;;;13.55;3.78;;;5.00;99.90;;;;;;5043165;28;20112;-60
2023/02/02 00:51:44;;;;;;;12.77;3.20;;;5.00;99.90;;;;;;5034045;28;20255;-60
2023/02/02 00:54:10;;;;;;;7.32;2.10;;;5.00;99.90;;;;;;5044354;28;20147;-60
2023/02/02 00:56:35;;;;;;;16.73;3.47;;;5.00;99.90;;;;;;5030575;28;20060;-61
2023/02/02 00:59:01;;;;;;;18.63;2.83;;;5.00;99.90;;;;;;5034569;28;20033;-60
2023/02/02 01:01:26;;;;;;;24.67;3.08;;;5.00;99.90;;;;;;5040973;28;20033;-60
2023/02/02 01:03:52;;;;;;;14.95;2.65;;;5.00;99.90;;;;;;5035113;28;20630;-60
2023/02/02 01:06:18;;;;;;;9.48;2.45;;;5.00;99.90;;;;;;5029397;28;20425;-60
2023/02/02 01:08:43;;;;;;;11.43;2.63;;;5.00;99.90;;;;;;5034324;28;20201;-61
2023/02/02 01:11:09;;;;;;;16.15;3.33;;;5.00;99.90;;;;;;5038100;28;20102;-60
2023/02/02 01:13:36;;;;;;;18.08;3.42;;;5.00;99.90;;;;;;5034048;28;20176;-60
2023/02/02 01:16:02;;;;;;;18.42;3.30;;;5.00;99.90;;;;;;5026498;28;20026;-63
2023/02/02 01:18:28;;;;;;;12.50;3.05;;;5.00;99.90;;;;;;5028693;28;20037;-63
2023/02/02 01:20:58;;;;;;;17.20;2.45;;;5.00;99.90;;;;;;5027079;28;20076;-62
2023/02/02 01:23:24;;;;;;;11.70;2.65;;;5.00;99.90;;;;;;5042561;28;20037;-62
2023/02/02 01:25:54;;;;;;;13.80;3.03;;;5.00;99.90;;;;;;5036079;28;20078;-63
2023/02/02 01:28:20;;;;;;;14.23;2.45;;;5.00;99.90;;;;;;5041348;28;20052;-62
2023/02/02 01:30:46;;;;;;;13.80;2.75;;;5.00;99.90;;;;;;5043438;28;20436;-62
2023/02/02 01:33:11;;;;;;;13.30;3.25;;;5.00;99.90;;;;;;5034305;28;20086;-63
2023/02/02 01:35:43;;;;;;;16.73;3.22;;;5.00;99.90;;;;;;5033815;28;20083;-62
2023/02/02 01:38:08;;;;;;;7.72;2.10;;;5.00;99.90;;;;;;5022185;28;20033;-62
2023/02/02 01:40:34;;;;;;;15.57;2.42;;;5.00;99.90;;;;;;5045574;28;20445;-63
2023/02/02 01:42:59;;;;;;;9.77;1.95;;;5.00;99.90;;;;;;5024774;28;20044;-63
2023/02/02 01:45:27;;;;;;;7.22;2.15;;;5.00;99.90;;;;;;5029665;28;20033;-62
2023/02/02 01:47:58;;;;;;;10.63;3.10;;;5.00;99.90;;;;;;5045403;28;20518;-62
2023/02/02 01:50:29;;;;;;;12.27;2.42;;;5.00;99.90;;;;;;5030843;28;20436;-62
2023/02/02 01:52:57;;;;;;;17.15;3.65;;;5.00;99.90;;;;;;5033424;28;20100;-62
2023/02/02 01:55:25;;;;;;;15.43;3.80;;;5.00;99.90;;;;;;5032188;28;20040;-62
2023/02/02 01:58:01;;;;;;;19.23;2.65;;;5.00;99.90;;;;;;5034173;28;20026;-62
2023/02/02 02:00:26;;;;;;;14.93;1.97;;;5.00;99.90;;;;;;5032034;28;20045;-62
2023/02/02 02:03:04;;;;;;;10.25;2.55;;;5.00;99.90;;;;;;5043130;28;20272;-62
2023/02/02 02:05:37;;;;;;;9.55;2.95;;;5.00;99.90;;;;;;5034228;28;20595;-63
2023/02/02 02:08:18;;;;;;;8.75;2.20;;;5.00;99.90;;;;;;5029910;28;20037;-63
2023/02/02 02:10:44;;;;;;;8.52;2.00;;;5.00;99.90;;;;;;5031057;28;20453;-63
2023/02/02 02:13:10;;;;;;;11.00;2.65;;;5.00;99.90;;;;;;5041329;28;20107;-63
2023/02/02 02:18:54;;;;;;;15.23;2.63;;;5.00;99.90;;;;;;5032339;28;20044;-57
2023/02/02 02:28:10;;;;;;;12.60;2.28;;;5.00;99.90;;;;;;5032394;28;20091;-57
2023/02/02 02:31:06;;;;;;;11.10;2.45;;;5.00;99.90;;;;;;5030362;28;20036;-58
2023/02/02 02:33:47;;;;;;;15.05;2.72;;;4.90;99.90;;;;;;5030677;28;20480;-57
2023/02/02 02:36:24;;;;;;;13.27;2.53;;;5.00;99.90;;;;;;5045653;28;20075;-56
2023/02/02 02:39:00;;;;;;;11.93;2.22;;;5.00;99.90;;;;;;5032027;28;20043;-58
2023/02/02 02:41:32;;;;;;;20.48;3.05;;;4.90;99.90;;;;;;5047100;28;20033;-58
2023/02/02 02:44:08;;;;;;;16.02;3.10;;;5.00;99.90;;;;;;5031778;28;20112;-55
2023/02/02 02:46:35;;;;;;;14.55;2.55;;;4.90;99.90;;;;;;5048326;28;20037;-58
2023/02/02 02:49:01;;;;;;;10.52;2.25;;;4.90;99.90;;;;;;5030591;28;20405;-56
2023/02/02 02:51:46;;;;;;;14.20;2.42;;;4.90;99.90;;;;;;5030141;28;20056;-57
2023/02/02 02:54:22;;;;;;;14.45;2.60;;;5.00;99.90;;;;;;5031376;28;20037;-57
2023/02/02 02:56:56;;;;;;;9.02;2.72;;;5.00;99.90;;;;;;5030341;28;20412;-57
2023/02/02 02:59:52;;;;;;;11.30;1.67;;;4.90;99.90;;;;;;5028473;28;20033;-57
2023/02/02 03:02:36;;;;;;;15.18;3.20;;;4.90;99.90;;;;;;5031535;28;20065;-57
2023/02/02 03:05:13;;;;;;;14.65;2.35;;;4.90;99.90;;;;;;5025124;28;20041;-57
2023/02/02 03:07:47;;;;;;;15.25;2.88;;;4.90;99.90;;;;;;5031172;28;20083;-57
2023/02/02 03:10:17;;;;;;;13.10;2.58;;;4.90;99.90;;;;;;5027634;28;20028;-56
2023/02/02 03:12:48;;;;;;;16.27;2.75;;;4.90;99.90;;;;;;5045325;28;20050;-57
2023/02/02 03:15:14;;;;;;;12.07;2.42;;;4.90;99.90;;;;;;5029234;28;20029;-58
2023/02/02 03:17:42;;;;;;;13.32;2.40;;;4.90;99.90;;;;;;5031058;28;20025;-56
2023/02/02 03:20:08;;;;;;;14.07;2.40;;;4.90;99.90;;;;;;5050384;28;20110;-56
2023/02/02 03:22:34;;;;;;;10.48;2.10;;;4.90;99.90;;;;;;5047706;28;20036;-54
2023/02/02 03:24:59;;;;;;;10.50;2.45;;;4.90;99.90;;;;;;5031404;28;20041;-56
2023/02/02 03:27:26;;;;;;;14.68;2.28;;;4.90;99.90;;;;;;5040565;28;20037;-57
2023/02/02 03:29:51;;;;;;;9.30;2.30;;;4.90;99.90;;;;;;5031458;28;20037;-55
2023/02/02 03:32:17;;;;;;;11.93;2.58;;;4.90;99.90;;;;;;5029414;28;20094;-56
2023/02/02 03:34:42;;;;;;;13.60;2.15;;;4.90;99.90;;;;;;5049798;28;20040;-57
2023/02/02 03:37:08;;;;;;;11.73;2.47;;;4.90;99.90;;;;;;5045540;28;20037;-56
2023/02/02 03:39:33;;;;;;;11.02;2.15;;;4.90;99.90;;;;;;5031185;28;20118;-55
2023/02/02 03:41:59;;;;;;;14.50;2.83;;;4.80;99.90;;;;;;5032864;28;20116;-64
2023/02/02 03:44:24;;;;;;;6.50;1.67;;;4.80;99.90;;;;;;5049783;28;20052;-60
2023/02/02 03:46:53;;;;;;;13.43;1.90;;;4.70;99.90;;;;;;5043217;28;20025;-57
2023/02/02 03:49:19;;;;;;;10.00;1.58;;;4.70;99.90;;;;;;5031090;28;20029;-57
2023/02/02 03:51:45;;;;;;;8.32;1.70;;;4.70;99.90;;;;;;5034807;28;20112;-57
2023/02/02 03:54:10;;;;;;;11.68;2.08;;;4.70;99.90;;;;;;5049575;28;20036;-56
2023/02/02 03:56:36;;;;;;;11.23;2.05;;;4.70;99.90;;;;;;5040958;28;20043;-57
2023/02/02 03:59:01;;;;;;;5.63;1.50;;;4.70;99.90;;;;;;5030954;28;20044;-54
2023/02/02 04:01:28;;;;;;;5.88;1.63;;;4.70;99.90;;;;;;5047329;28;20043;-56
2023/02/02 04:03:55;;;;;;;10.07;2.15;;;4.70;99.90;;;;;;5030527;28;20108;-56
2023/02/02 04:06:21;;;;;;;10.23;2.20;;;4.70;99.90;;;;;;5044775;28;20053;-57
2023/02/02 04:08:47;;;;;;;7.50;1.90;;;4.80;99.90;;;;;;5030297;28;20060;-57
2023/02/02 04:11:12;;;;;;;10.20;1.50;;;4.80;99.90;;;;;;5046990;28;20052;-57
2023/02/02 04:13:39;;;;;;;8.50;1.50;;;4.80;99.90;;;;;;5030215;28;20057;-57
2023/02/02 04:16:05;;;;;;;13.48;1.98;;;4.80;99.90;;;;;;5047422;28;20021;-56
2023/02/02 04:18:30;;;;;;;6.32;1.50;;;4.90;99.90;;;;;;5030302;28;20025;-56
2023/02/02 04:21:00;;;;;;;11.65;3.05;;;4.90;99.90;;;;;;5047003;28;20029;-56
2023/02/02 04:23:27;;;;;;;13.88;2.33;;;4.90;99.90;;;;;;5048444;28;20392;-57
2023/02/02 04:25:53;;;;;;;13.68;2.80;;;4.90;99.90;;;;;;5026819;28;20090;-56
2023/02/02 04:28:19;;;;;;;12.50;2.47;;;4.90;99.90;;;;;;5029830;28;20045;-56
2023/02/02 04:30:44;;;;;;;12.23;1.73;;;4.90;99.90;;;;;;5046819;28;20473;-55
2023/02/02 04:33:10;;;;;;;9.05;1.73;;;4.90;99.90;;;;;;5049524;28;20154;-56
2023/02/02 04:35:35;;;;;;;9.80;2.05;;;4.90;99.90;;;;;;5028170;28;20026;-56
2023/02/02 04:38:01;;;;;;;9.27;1.80;;;4.90;99.90;;;;;;5029479;28;20418;-57
2023/02/02 04:40:26;;;;;;;10.93;2.03;;;4.90;99.90;;;;;;5046548;28;20120;-57
2023/02/02 04:42:52;;;;;;;10.95;2.35;;;4.90;99.90;;;;;;5049478;28;20029;-54
2023/02/02 04:45:18;;;;;;;12.18;2.75;;;4.90;99.90;;;;;;5027922;28;20030;-57
2023/02/02 04:47:44;;;;;;;12.30;2.00;;;4.90;99.90;;;;;;5029423;28;20021;-56
2023/02/02 04:50:10;;;;;;;10.85;1.92;;;4.90;99.90;;;;;;5047181;28;20103;-57
2023/02/02 04:52:36;;;;;;;10.38;2.25;;;4.90;99.90;;;;;;5029431;28;20037;-57
2023/02/02 04:55:02;;;;;;;11.60;2.10;;;5.00;99.90;;;;;;5048353;28;20098;-56
2023/02/02 04:57:27;;;;;;;11.55;2.30;;;5.00;99.90;;;;;;5046738;28;20035;-54
2023/02/02 04:59:53;;;;;;;17.10;2.17;;;5.00;99.90;;;;;;5029552;28;20036;-57
2023/02/02 05:02:18;;;;;;;8.55;1.83;;;5.00;99.90;;;;;;5028925;28;20493;-57
2023/02/02 05:04:44;;;;;;;9.18;2.38;;;5.00;99.90;;;;;;5042263;28;20017;-56
2023/02/02 05:07:10;;;;;;;10.30;2.10;;;5.00;99.90;;;;;;5043708;28;20032;-57
2023/02/02 05:09:35;;;;;;;13.73;2.20;;;5.00;99.90;;;;;;5029726;28;20037;-56
2023/02/02 05:12:01;;;;;;;9.20;1.77;;;5.00;99.90;;;;;;5030679;28;20061;-58
2023/02/02 05:14:26;;;;;;;13.48;2.83;;;5.00;99.90;;;;;;5048659;28;20124;-55
2023/02/02 05:16:52;;;;;;;9.18;2.08;;;5.00;99.90;;;;;;5041688;28;20029;-55
2023/02/02 05:19:18;;;;;;;8.95;1.88;;;5.00;99.90;;;;;;5029391;28;20033;-55
2023/02/02 05:21:44;;;;;;;11.70;1.83;;;4.90;99.90;;;;;;5032665;28;20037;-55
2023/02/02 05:24:10;;;;;;;9.85;2.00;;;4.90;99.90;;;;;;5047997;28;20029;-55
2023/02/02 05:26:36;;;;;;;8.45;1.55;;;4.90;99.90;;;;;;5039251;28;20511;-57
2023/02/02 05:29:01;;;;;;;7.45;2.17;;;4.80;99.90;;;;;;5029168;28;20048;-58
2023/02/02 05:31:27;;;;;;;9.48;1.65;;;4.80;99.90;;;;;;5045791;28;20025;-58
2023/02/02 05:33:52;;;;;;;8.43;1.83;;;4.80;99.90;;;;;;5029246;28;20037;-56
2023/02/02 05:36:18;;;;;;;7.38;1.40;;;4.80;99.90;;;;;;5044563;28;20455;-57
2023/02/02 05:38:43;;;;;;;10.02;2.20;;;4.80;99.90;;;;;;5028897;28;20029;-58
2023/02/02 05:41:09;;;;;;;8.60;1.60;;;4.80;99.90;;;;;;5045671;28;20087;-58
2023/02/02 05:43:34;;;;;;;15.00;2.00;;;4.80;99.90;;;;;;5029218;28;20041;-57
2023/02/02 05:46:00;;;;;;;5.95;1.77;;;4.80;99.90;;;;;;5045769;28;20029;-58
2023/02/02 05:48:26;;;;;;;9.65;1.95;;;4.80;99.90;;;;;;5048357;28;20021;-57
2023/02/02 05:51:03;;;;;;;6.88;1.98;;;4.80;99.90;;;;;;5028088;28;20485;-57
2023/02/02 05:53:30;;;;;;;27.13;2.28;;;4.80;99.90;;;;;;5048669;28;20782;-57
2023/02/02 05:55:56;;;;;;;11.30;1.80;;;4.80;99.90;;;;;;5025611;28;20430;-58
2023/02/02 05:58:21;;;;;;;7.85;1.50;;;4.90;99.90;;;;;;5028469;28;20025;-56
2023/02/02 06:00:47;;;;;;;10.15;2.20;;;4.90;99.90;;;;;;5047419;28;20033;-57
2023/02/02 06:03:13;;;;;;;9.18;1.73;;;4.90;99.90;;;;;;5046515;28;20045;-58
2023/02/02 06:05:38;;;;;;;7.13;1.60;;;4.90;99.90;;;;;;5033646;28;20048;-57
2023/02/02 06:08:04;;;;;;;8.90;1.95;;;4.80;99.90;;;;;;5045806;28;20037;-57
2023/02/02 06:10:30;;;;;;;12.38;1.92;;;4.80;99.90;;;;;;5028533;28;20057;-56
2023/02/02 06:12:56;;;;;;;8.23;1.63;;;4.80;99.90;;;;;;5035685;28;20067;-57
2023/02/02 06:15:22;;;;;;;11.15;1.95;;;4.90;99.90;;;;;;5048585;28;20029;-64
2023/02/02 06:17:47;;;;;;;16.17;2.40;;;4.90;99.90;;;;;;5043458;28;20082;-64
2023/02/02 06:20:13;;;;;;;11.15;2.53;;;4.80;99.90;;;;;;5027408;28;20029;-64
2023/02/02 06:22:39;;;;;;;10.10;1.83;;;4.80;99.90;;;;;;5028948;28;20029;-64
2023/02/02 06:25:06;;;;;;;9.40;1.83;;;4.80;99.90;;;;;;5047758;28;20048;-65
2023/02/02 06:27:32;;;;;;;11.02;2.63;;;4.80;99.90;;;;;;5040941;28;20072;-64
2023/02/02 06:29:57;;;;;;;9.82;1.35;;;4.80;99.90;;;;;;5028907;28;20111;-64
2023/02/02 06:32:23;;;;;;;9.77;1.67;;;4.80;99.90;;;;;;5041506;28;20140;-64
2023/02/02 06:34:48;;;;;;;5.82;1.30;;;4.70;99.90;;;;;;5032209;28;20037;-64
2023/02/02 06:37:14;;;;;;;6.25;1.35;;;4.70;99.90;;;;;;5037686;28;20036;-63
2023/02/02 06:39:39;;;;;;;11.18;1.95;;;4.70;99.90;;;;;;5050986;28;20087;-62
2023/02/02 06:42:05;;;;;;;8.32;1.33;;;4.70;99.90;;;;;;5030523;28;20037;-62
2023/02/02 06:44:30;;;;;;;7.68;1.58;;;4.70;99.90;;;;;;5050815;28;20031;-62
2023/02/02 06:46:56;;;;;;;8.98;1.70;;;4.70;99.90;;;;;;5030029;28;20039;-62
2023/02/02 06:49:21;;;;;;;6.32;1.58;;;4.70;99.90;;;;;;5050880;28;20091;-62
2023/02/02 06:51:48;;;;;;;11.23;2.08;;;4.80;99.90;;;;;;5027855;28;20105;-62
2023/02/02 06:54:13;;;;;;;6.82;1.52;;;4.80;99.90;;;;;;5048695;28;20715;-62
2023/02/02 06:56:39;;;;;;;10.57;2.25;;;4.80;99.90;;;;;;5051273;28;20049;-62
2023/02/02 06:59:05;;;;;;;8.48;1.40;;;4.80;99.90;;;;;;5028982;28;20040;-61
2023/02/02 07:01:31;;;;;;;5.85;1.52;;;4.90;99.90;;;;;;5030948;28;20049;-62
2023/02/02 07:03:56;;;;;;;11.60;1.70;;;4.90;99.90;;;;;;5031411;28;20398;-62
2023/02/02 07:06:25;;;;;;;7.25;1.42;;;4.90;99.90;;;;;;5045250;28;20021;-62
2023/02/02 07:08:50;;;;;;;7.60;1.50;;;5.00;99.90;;;;;;5047054;28;20104;-63
2023/02/02 07:11:16;;;;;;;9.57;2.55;;;5.00;99.90;;;;;;5032086;28;20572;-61
2023/02/02 07:13:46;;;;;;;7.80;1.65;;;5.00;99.90;;;;;;5042779;28;20586;-62
2023/02/02 07:16:17;;;;;;;13.35;2.15;;;5.00;99.90;;;;;;5031476;28;20120;-62
2023/02/02 07:18:43;;;;;;;8.13;1.70;;;5.00;99.90;;;;;;5045374;28;20318;-62
2023/02/02 07:21:16;;;;;;;13.85;1.80;;;5.10;99.90;;;;;;5031735;28;20033;-62
2023/02/02 07:23:41;;;;;;;7.95;1.67;;;5.00;99.90;;;;;;5045236;28;20679;-62
2023/02/02 07:26:08;;;;;;;11.30;2.30;;;5.10;99.90;;;;;;5034210;28;20037;-62
2023/02/02 07:28:35;;;;;;;15.48;3.10;;;5.10;99.90;;;;;;5044636;28;20086;-62
2023/02/02 07:31:11;;;;;;;11.55;2.15;;;5.10;99.90;;;;;;5031883;28;20030;-61
2023/02/02 07:33:38;;;;;;;;;;;5.20;99.90;;;;;;5040605;28;20029;-61
2023/02/02 07:36:04;;;;;;;8.80;1.60;;;5.20;99.90;;;;;;5031266;28;19909;-62
2023/02/02 07:38:30;;;;;;;6.22;1.42;;;5.20;99.90;;;;;;5031588;28;20026;-64
2023/02/02 07:40:55;;;;;;;10.70;1.67;;;5.20;99.90;;;;;;5044859;28;20164;-64
2023/02/02 07:43:21;;;;;;;14.52;2.15;;;5.30;99.90;;;;;;5046248;28;20033;-65
2023/02/02 07:45:46;;;;;;;8.95;1.58;;;5.30;99.90;;;;;;5049567;28;20107;-64
2023/02/02 07:48:12;;;;;;;12.73;1.80;;;5.40;99.90;;;;;;5029547;28;20029;-63
2023/02/02 07:50:37;;;;;;;8.55;2.10;;;5.40;99.90;;;;;;5028876;28;20047;-61
2023/02/02 07:53:03;;;;;;;7.55;1.88;;;5.40;99.90;;;;;;5050159;28;20033;-62
2023/02/02 07:55:28;;;;;;;13.00;2.17;;;5.50;99.90;;;;;;5047476;28;20024;-62
2023/02/02 07:57:57;;;;;;;11.88;2.35;;;5.50;99.30;;;;;;5031233;28;20029;-61
2023/02/02 08:00:23;;;;;;;10.15;1.70;;;5.60;99.40;;;;;;5031496;28;20121;-61
2023/02/02 08:02:49;;;;;;;13.20;2.15;;;5.60;99.30;;;;;;5049823;28;20395;-61
2023/02/02 08:05:15;;;;;;;9.10;1.75;;;5.60;98.90;;;;;;5033143;28;20030;-61
2023/02/02 08:07:40;;;;;;;7.25;2.00;;;5.70;99.00;;;;;;5030489;28;20021;-62
2023/02/02 08:10:06;;;;;;;9.55;2.00;;;5.70;95.90;;;;;;5033275;28;20528;-61
2023/02/02 08:12:32;;;;;;;13.00;1.88;;;5.70;94.80;;;;;;5045205;28;20029;-61
2023/02/02 08:14:57;;;;;;;10.73;2.10;;;5.70;94.20;;;;;;5028272;28;20116;-61
2023/02/02 08:17:23;;;;;;;15.07;2.92;;;5.70;93.40;;;;;;5049815;28;20025;-61
2023/02/02 08:19:49;;;;;;;12.63;2.05;;;5.80;94.60;;;;;;5041371;28;20521;-61
2023/02/02 08:22:14;;;;;;;10.50;1.90;;;5.80;93.30;;;;;;5030694;28;20493;-60
2023/02/02 08:24:41;;;;;;;12.85;2.35;;;5.80;93.30;;;;;;5036448;28;20485;-61
2023/02/02 08:27:07;;;;;;;9.43;1.77;;;5.80;92.20;;;;;;5049442;28;20025;-61
2023/02/02 08:29:34;;;;;;;7.78;1.77;;;5.90;91.30;;;;;;5025877;28;20128;-61
2023/02/02 08:32:00;;;;;;;5.93;1.10;;;5.90;92.20;;;;;;5036407;28;20029;-61
2023/02/02 08:34:26;;;;;;;10.32;1.88;;;6.00;91.30;;;;;;5046230;28;20028;-61
2023/02/02 08:36:51;;;;;;;15.25;2.08;;;6.10;91.60;;;;;;5029524;28;20033;-62
2023/02/02 08:39:17;;;;;;;8.65;1.35;;;6.10;89.80;;;;;;5031665;28;20061;-63
2023/02/02 08:41:44;;;;;;;4.30;1.27;;;6.10;90.00;;;;;;5047959;28;20068;-63
2023/02/02 08:44:13;;;;;;;10.05;1.63;;;6.30;92.30;;;;;;5040397;28;20024;-64
2023/02/02 08:46:40;;;;;;;6.68;1.33;;;6.40;92.40;;;;;;5028806;28;20029;-63
2023/02/02 08:49:05;;;;;;;6.80;1.50;;;6.60;89.20;;;;;;5033810;28;20018;-63
2023/02/02 08:51:31;;;;;;;8.27;1.67;;;6.80;91.20;;;;;;5046288;28;20035;-63
2023/02/02 08:53:57;;;;;;;9.38;2.80;;;6.90;88.50;;;;;;5039156;28;20029;-63
2023/02/02 08:56:23;;;;;;;6.32;1.45;;;6.90;83.00;;;;;;5027997;28;20025;-63
2023/02/02 08:58:51;;;;;;;6.47;1.60;;;6.90;82.60;;;;;;5046226;28;20041;-63
2023/02/02 09:01:21;;;;;;;8.95;1.80;;;7.00;80.10;;;;;;5029553;28;20038;-63
2023/02/02 09:03:47;;;;;;;7.65;1.38;;;6.90;75.30;;;;;;5046647;28;20060;-63
2023/02/02 09:06:15;;;;;;;7.68;2.38;;;6.90;80.00;;;;;;5024050;28;20728;-63
2023/02/02 09:08:41;;;;;;;8.23;1.63;;;6.90;78.00;;;;;;5045595;28;20029;-63
2023/02/02 09:11:13;;;;;;;7.43;1.52;;;7.00;80.90;;;;;;5029875;28;20029;-63
2023/02/02 09:13:39;;;;;;;11.30;1.65;;;7.00;81.50;;;;;;5026747;28;20076;-63
2023/02/02 09:16:11;;;;;;;6.28;1.45;;;7.10;79.80;;;;;;5047501;28;20572;-63
2023/02/02 09:18:37;;;;;;;9.48;1.60;;;7.20;83.60;;;;;;5027968;28;20033;-63
2023/02/02 09:21:06;;;;;;;6.25;1.70;;;7.20;80.60;;;;;;5029653;28;20611;-63
2023/02/02 09:23:33;;;;;;;8.77;1.55;;;7.00;79.30;;;;;;5045171;28;20025;-63
2023/02/02 09:26:14;;;;;;;14.57;1.70;;;6.90;79.50;;;;;;5048521;28;20106;-64
2023/02/02 09:28:42;;;;;;;8.45;1.48;;;6.90;75.60;;;;;;5027078;28;20172;-64
2023/02/02 09:31:08;;;;;;;5.57;1.67;;;6.80;77.40;;;;;;5029103;28;20029;-63
2023/02/02 09:33:34;;;;;;;13.40;2.20;;;6.80;76.80;;;;;;5046288;28;20021;-63
2023/02/02 09:36:15;;;;;;;7.25;1.77;;;6.80;75.50;;;;;;5047425;28;20027;-63
2023/02/02 09:38:41;;;;;;;7.50;1.80;;;7.00;76.50;;;;;;5027045;28;20018;-63
2023/02/02 09:41:35;;;;;;;7.43;1.58;;;7.20;73.90;;;;;;5027597;28;20065;-63
2023/02/02 09:44:22;;;;;;;15.70;2.22;;;7.40;75.80;;;;;;5019280;28;20037;-63
2023/02/02 09:47:13;;;;;;;11.10;1.70;;;7.50;75.50;;;;;;5028953;28;20021;-63
2023/02/02 09:50:00;;;;;;;7.85;1.90;;;7.50;79.90;;;;;;5033709;28;20029;-61
2023/02/02 09:52:45;;;;;;;9.93;2.17;;;7.70;82.60;;;;;;5028753;28;20022;-61
2023/02/02 09:55:12;;;;;;;8.38;1.60;;;7.70;82.70;;;;;;5043601;28;20032;-61
2023/02/02 09:57:47;;;;;;;8.15;1.75;;;7.80;86.40;;;;;;5028924;28;20428;-61
2023/02/02 10:00:36;;;;;;;7.20;1.63;;;7.80;88.60;;;;;;5043819;28;20555;-61
2023/02/02 10:03:13;;;;;;;8.25;1.58;;;7.80;88.20;;;;;;5028748;28;20116;-61
2023/02/02 10:05:50;;;;;;;11.75;2.13;;;7.70;89.00;;;;;;5032677;28;20040;-61
2023/02/02 10:08:25;;;;;;;13.48;2.10;;;7.70;89.90;;;;;;5029312;28;20091;-60
2023/02/02 10:10:51;;;;;;;7.93;1.85;;;7.70;88.80;;;;;;5032791;28;20381;-61
2023/02/02 10:13:24;;;;;;;7.22;2.35;;;7.80;88.70;;;;;;5037837;28;20046;-61
2023/02/02 10:15:59;;;;;;;7.78;1.38;;;8.00;90.10;;;;;;5032863;28;20025;-58
2023/02/02 10:18:43;;;;;;;5.78;1.60;;;8.20;88.60;;;;;;5050190;28;20025;-57
2023/02/02 10:21:15;;;;;;;8.30;2.10;;;8.20;78.60;;;;;;5052243;28;20043;-59
2023/02/02 10:23:44;;;;;;;6.40;1.95;;;8.10;80.00;;;;;;5030463;28;20029;-58
2023/02/02 10:26:13;;;;;;;13.07;2.20;;;7.90;80.40;;;;;;5032374;28;20740;-58
2023/02/02 10:29:12;;;;;;;10.75;3.90;;;7.70;84.10;;;;;;5049454;28;20013;-58
2023/02/02 10:32:21;;;;;;;7.00;2.28;;;7.40;90.40;;;;;;5052134;28;20124;-58
2023/02/02 10:34:55;;;;;;;4.47;1.75;;;7.00;91.00;;;;;;4988259;28;20030;-57
2023/02/02 10:37:38;;;;;;;6.57;1.02;;;6.80;94.20;;;;;;5044714;28;20606;-57
2023/02/02 10:40:14;;;;;;;6.20;1.17;;;6.80;95.50;;;;;;5046190;28;20125;-57
2023/02/02 10:43:45;;;;;;;4.97;0.80;;;6.70;94.50;;;;;;5032215;28;20045;-56
2023/02/02 10:46:32;;;;;;;7.78;2.03;;;6.70;94.30;;;;;;5008190;28;20032;-58
2023/02/02 10:49:26;;;;;;;9.73;2.47;;;6.60;92.30;;;;;;5051892;28;20025;-57
2023/02/02 10:51:57;;;;;;;9.75;1.50;;;6.50;92.60;;;;;;5030595;28;20029;-58
2023/02/02 10:54:49;;;;;;;7.15;1.58;;;6.50;93.70;;;;;;5031978;28;20048;-59
2023/02/02 10:57:23;;;;;;;8.07;1.67;;;6.50;93.60;;;;;;4992953;28;20117;-55
2023/02/02 11:00:01;;;;;;;10.40;1.83;;;6.60;91.60;;;;;;5043427;28;20029;-56
2023/02/02 11:02:27;;;;;;;9.35;1.63;;;6.60;88.80;;;;;;5029720;28;20516;-57
2023/02/02 11:07:36;;;;;;;5.43;1.10;;;6.60;87.00;;;;;;5030969;28;20451;-55
2023/02/02 11:10:02;;;;;;;6.40;1.33;;;6.60;85.70;;;;;;5047892;28;20037;-55
2023/02/02 11:12:32;;;;;;;7.18;1.20;;;6.60;87.30;;;;;;5034072;28;20029;-54
2023/02/02 11:15:27;;;;;;;5.90;1.20;;;6.60;87.40;;;;;;5044002;28;20029;-53
2023/02/02 11:17:53;;;;;;;3.60;1.20;;;6.60;86.50;;;;;;5044852;28;20075;-57
2023/02/02 11:20:34;;;;;;;7.55;1.42;;;6.60;85.60;;;;;;5029146;28;20033;-56
2023/02/02 11:23:05;;;;;;;6.78;1.80;;;6.70;81.30;;;;;;5043995;28;20052;-57
2023/02/02 11:25:38;;;;;;;3.58;0.85;;;6.80;78.30;;;;;;5033618;28;20025;-57
2023/02/02 11:28:34;;;;;;;7.57;1.73;;;6.90;77.10;;;;;;5030414;28;20048;-55
2023/02/02 11:31:00;;;;;;;4.65;1.33;;;6.80;71.50;;;;;;5018267;28;20573;-55
2023/02/02 11:33:28;;;;;;;5.60;1.00;;;6.80;70.60;;;;;;5028181;28;20044;-56
2023/02/02 11:35:59;;;;;;;7.20;1.23;;;6.80;72.60;;;;;;5043148;28;20104;-55
2023/02/02 11:38:26;;;;;;;6.45;0.93;;;6.80;70.00;;;;;;5027191;28;20048;-58
2023/02/02 11:40:56;;;;;;;3.70;1.38;;;6.70;71.90;;;;;;5030363;28;20049;-56
2023/02/02 11:43:31;;;;;;;7.43;1.58;;;6.70;72.40;;;;;;5042710;28;20048;-54
2023/02/02 11:46:04;;;;;;;2.80;1.05;;;6.70;74.20;;;;;;5028400;28;20036;-58
2023/02/02 11:48:36;;;;;;;8.95;1.58;;;6.80;73.80;;;;;;5038563;28;20193;-54
2023/02/02 11:51:03;;;;;;;3.78;1.17;;;7.00;74.40;;;;;;5030641;28;20025;-56
2023/02/02 11:53:48;;;;;;;7.38;1.20;;;7.00;75.50;;;;;;5040410;28;20476;-56
2023/02/02 11:56:25;;;;;;;6.97;1.13;;;7.10;77.30;;;;;;5031505;28;20087;-54
2023/02/02 11:58:58;;;;;;;4.18;1.00;;;7.20;77.40;;;;;;5044773;28;20024;-55
2023/02/02 12:01:35;;;;;;;5.13;1.40;;;7.20;77.30;;;;;;5047642;28;20037;-55
2023/02/02 12:04:22;;;;;;;6.88;1.65;;;7.10;78.40;;;;;;5025951;28;20076;-57
2023/02/02 12:06:48;;;;;;;4.53;1.20;;;7.00;83.10;;;;;;5022430;28;20033;-56
2023/02/02 12:09:20;;;;;;;4.88;1.20;;;6.80;82.30;;;;;;5044081;28;20043;-55
2023/02/02 12:12:01;;;;;;;3.63;0.88;;;6.80;83.30;;;;;;5039073;28;20036;-56
2023/02/02 12:15:01;;;;;;;8.05;1.30;;;6.80;79.50;;;;;;5030258;28;20128;-57
2023/02/02 12:17:40;;;;;;;6.13;1.10;;;6.70;78.60;;;;;;5047107;28;20028;-55
2023/02/02 12:20:46;;;;;;;6.03;1.83;;;6.70;79.20;;;;;;5030340;28;20037;-54
2023/02/02 12:23:44;;;;;;;3.17;0.80;;;6.60;78.50;;;;;;5030271;28;20034;-55
2023/02/02 12:26:24;;;;;;;6.95;1.05;;;6.60;77.00;;;;;;5028162;28;20022;-55
2023/02/02 12:29:14;;;;;;;3.80;1.05;;;6.60;78.50;;;;;;5038272;28;20025;-55
2023/02/02 12:32:23;;;;;;;5.30;0.90;;;6.70;80.60;;;;;;5040394;28;20400;-55
2023/02/02 12:35:30;;;;;;;2.47;0.63;;;6.80;76.80;;;;;;5027530;28;20099;-55
2023/02/02 12:38:10;;;;;;;9.90;1.33;;;6.90;78.90;;;;;;5049950;28;20036;-55
2023/02/02 12:40:51;;;;;;;7.07;1.85;;;6.90;81.00;;;;;;5028104;28;20064;-55
2023/02/02 12:43:40;;;;;;;6.20;1.05;;;6.90;85.20;;;;;;5029988;28;20110;-54
2023/02/02 12:46:31;;;;;;;8.68;1.70;;;6.80;87.90;;;;;;5040216;28;20496;-55
2023/02/02 12:49:16;;;;;;;6.53;1.50;;;6.70;88.20;;;;;;5035181;28;20049;-56
2023/02/02 12:52:23;;;;;;;6.53;1.27;;;6.50;87.20;;;;;;5039530;28;20711;-57
2023/02/02 12:54:57;;;;;;;9.95;1.65;;;6.40;87.20;;;;;;5036162;28;20033;-58
2023/02/02 12:57:49;;;;;;;4.45;1.33;;;6.20;89.30;;;;;;5039313;28;20116;-55
2023/02/02 13:00:36;;;;;;;7.00;1.55;;;6.30;90.00;;;;;;5042371;28;20064;-55
2023/02/02 13:03:28;;;;;;;9.07;1.23;;;6.20;89.50;;;;;;5036348;28;20552;-53
2023/02/02 13:06:09;;;;;;;8.00;1.60;;;6.20;88.10;;;;;;5024601;28;20079;-53
2023/02/02 13:08:46;;;;;;;11.82;2.25;;;6.10;88.50;;;;;;5040309;28;20035;-56
2023/02/02 13:11:30;;;;;;;6.55;1.63;;;6.00;88.20;;;;;;5035813;28;20393;-57
2023/02/02 13:14:07;;;;;;;5.35;1.25;;;6.00;88.80;;;;;;5043801;28;20037;-56
2023/02/02 13:16:35;;;;;;;4.68;1.77;;;5.90;89.90;;;;;;5036062;28;20032;-55
2023/02/02 13:19:08;;;;;;;7.22;1.40;;;5.90;90.00;;;;;;5026730;28;20037;-56
2023/02/02 13:21:36;;;;;;;4.45;1.40;;;5.90;90.00;;;;;;5043489;28;20043;-54
2023/02/02 13:24:05;;;;;;;5.25;1.27;;;5.90;87.50;;;;;;5035618;28;20063;-56
2023/02/02 13:26:40;;;;;;;10.35;1.35;;;5.90;85.30;;;;;;5034117;28;20033;-56